createdAt,value
2022-12-26T00:01:59.299Z,100.00
2022-12-26T00:04:48.650Z,100.00
2022-12-26T00:07:17.887Z,100.00
2022-12-26T00:09:46.360Z,100.00
2022-12-26T00:12:15.903Z,100.00
2022-12-26T00:14:56.289Z,100.00
2022-12-26T00:17:23.257Z,100.00
2022-12-26T00:19:50.300Z,100.00
2022-12-26T00:22:17.160Z,100.00
2022-12-26T00:24:44.148Z,100.00
2022-12-26T00:27:34.525Z,100.00
2022-12-26T00:30:08.831Z,100.00
2022-12-26T00:32:38.805Z,100.00
2022-12-26T00:35:08.504Z,100.00
2022-12-26T00:37:40.502Z,100.00
2022-12-26T00:40:14.457Z,100.00
2022-12-26T00:42:55.326Z,100.00
2022-12-26T00:45:22.246Z,100.00
2022-12-26T00:47:49.108Z,100.00
2022-12-26T00:50:16.263Z,100.00
2022-12-26T00:52:43.258Z,100.00
2022-12-26T00:55:10.275Z,100.00
2022-12-26T00:57:37.128Z,100.00
2022-12-26T01:00:06.976Z,100.00
2022-12-26T01:02:33.891Z,100.00
2022-12-26T01:05:02.717Z,100.00
2022-12-26T01:07:32.610Z,100.00
2022-12-26T01:09:59.501Z,100.00
2022-12-26T01:12:26.416Z,100.00
2022-12-26T01:14:55.744Z,100.00
2022-12-26T01:17:24.959Z,100.00
2022-12-26T01:19:52.746Z,100.00
2022-12-26T01:22:20.389Z,100.00
2022-12-26T01:24:47.109Z,100.00
2022-12-26T01:27:13.964Z,100.00
2022-12-26T01:29:40.934Z,100.00
2022-12-26T01:32:08.058Z,100.00
2022-12-26T01:34:39.229Z,100.00
2022-12-26T01:37:08.539Z,100.00
2022-12-26T01:39:35.595Z,100.00
2022-12-26T01:42:10.638Z,100.00
2022-12-26T01:45:17.793Z,100.00
2022-12-26T01:47:49.711Z,100.00
2022-12-26T01:50:29.274Z,100.00
2022-12-26T01:53:01.198Z,100.00
2022-12-26T01:55:30.355Z,100.00
2022-12-26T01:58:03.613Z,100.00
2022-12-26T02:00:31.771Z,100.00
2022-12-26T02:03:03.525Z,100.00
2022-12-26T02:05:34.496Z,100.00
2022-12-26T02:08:04.634Z,100.00
2022-12-26T02:10:42.522Z,100.00
2022-12-26T02:13:13.984Z,100.00
2022-12-26T02:15:43.041Z,100.00
2022-12-26T02:18:10.001Z,100.00
2022-12-26T02:20:45.045Z,100.00
2022-12-26T02:23:47.647Z,100.00
2022-12-26T02:26:49.919Z,100.00
2022-12-26T02:30:00.799Z,100.00
2022-12-26T02:32:40.297Z,100.00
2022-12-26T02:35:15.741Z,100.00
2022-12-26T02:37:54.713Z,100.00
2022-12-26T02:40:41.601Z,100.00
2022-12-26T02:43:17.159Z,100.00
2022-12-26T02:45:52.777Z,100.00
2022-12-26T02:48:32.356Z,100.00
2022-12-26T02:51:11.599Z,100.00
2022-12-26T02:53:46.596Z,100.00
2022-12-26T02:56:19.592Z,100.00
2022-12-26T02:58:57.840Z,100.00
2022-12-26T03:01:30.922Z,100.00
2022-12-26T03:04:04.479Z,100.00
2022-12-26T03:06:34.414Z,100.00
2022-12-26T03:09:04.691Z,100.00
2022-12-26T03:11:37.593Z,100.00
2022-12-26T03:14:13.981Z,100.00
2022-12-26T03:16:43.857Z,100.00
2022-12-26T03:19:15.581Z,100.00
2022-12-26T03:21:45.064Z,100.00
2022-12-26T03:24:14.296Z,100.00
2022-12-26T03:26:46.636Z,100.00
2022-12-26T03:29:18.979Z,100.00
2022-12-26T03:31:46.579Z,100.00
2022-12-26T03:34:14.815Z,100.00
2022-12-26T03:36:55.778Z,100.00
2022-12-26T03:39:32.213Z,100.00
2022-12-26T03:42:06.335Z,100.00
2022-12-26T03:44:41.135Z,100.00
2022-12-26T03:47:17.379Z,100.00
2022-12-26T03:49:52.003Z,100.00
2022-12-26T03:52:24.445Z,100.00
2022-12-26T03:54:57.112Z,100.00
2022-12-26T03:57:31.776Z,100.00
2022-12-26T04:00:03.039Z,100.00
2022-12-26T04:02:32.496Z,100.00
2022-12-26T04:05:04.293Z,100.00
2022-12-26T04:07:34.870Z,100.00
2022-12-26T04:10:07.870Z,100.00
2022-12-26T04:12:37.437Z,100.00
2022-12-26T04:15:11.998Z,100.00
2022-12-26T04:17:45.872Z,100.00
2022-12-26T04:20:19.955Z,100.00
2022-12-26T04:22:51.276Z,100.00
2022-12-26T04:25:49.008Z,100.00
2022-12-26T04:28:15.700Z,100.00
2022-12-26T04:30:47.785Z,100.00
2022-12-26T04:33:19.621Z,100.00
2022-12-26T04:35:52.331Z,100.00
2022-12-26T04:38:24.512Z,100.00
2022-12-26T04:40:59.524Z,100.00
2022-12-26T04:43:48.607Z,100.00
2022-12-26T04:46:17.638Z,100.00
2022-12-26T04:48:47.405Z,100.00
2022-12-26T04:51:16.033Z,100.00
2022-12-26T04:53:42.814Z,100.00
2022-12-26T04:56:11.036Z,100.00
2022-12-26T04:58:37.846Z,100.00
2022-12-26T05:01:04.648Z,100.00
2022-12-26T05:03:31.498Z,100.00
2022-12-26T05:05:58.697Z,100.00
2022-12-26T05:08:33.304Z,100.00
2022-12-26T05:11:00.124Z,100.00
2022-12-26T05:13:26.979Z,100.00
2022-12-26T05:15:53.815Z,100.00
2022-12-26T05:18:20.617Z,100.00
2022-12-26T05:20:47.701Z,100.00
2022-12-26T05:23:22.003Z,100.00
2022-12-26T05:25:51.994Z,100.00
2022-12-26T05:28:19.527Z,100.00
2022-12-26T05:30:49.516Z,100.00
2022-12-26T05:33:18.332Z,100.00
2022-12-26T05:35:46.368Z,100.00
2022-12-26T05:38:15.505Z,100.00
2022-12-26T05:40:42.365Z,100.00
2022-12-26T05:43:14.045Z,100.00
2022-12-26T05:45:43.731Z,100.00
2022-12-26T05:48:13.539Z,100.00
2022-12-26T05:50:42.269Z,100.00
2022-12-26T05:53:09.394Z,100.00
2022-12-26T05:55:36.294Z,100.00
2022-12-26T05:58:05.303Z,100.00
2022-12-26T06:00:33.821Z,100.00
2022-12-26T06:03:02.939Z,100.00
2022-12-26T06:05:29.999Z,100.00
2022-12-26T06:07:56.822Z,100.00
2022-12-26T06:10:23.528Z,100.00
2022-12-26T06:12:50.530Z,100.00
2022-12-26T06:15:17.334Z,100.00
2022-12-26T06:17:45.691Z,100.00
2022-12-26T06:20:12.518Z,100.00
2022-12-26T06:22:42.596Z,100.00
2022-12-26T06:25:13.464Z,100.00
2022-12-26T06:27:43.349Z,100.00
2022-12-26T06:30:11.013Z,100.00
2022-12-26T06:32:37.916Z,100.00
2022-12-26T06:35:09.716Z,100.00
2022-12-26T06:37:36.544Z,100.00
2022-12-26T06:40:03.878Z,100.00
2022-12-26T06:42:30.881Z,100.00
2022-12-26T06:44:58.214Z,100.00
2022-12-26T06:47:27.450Z,100.00
2022-12-26T06:49:56.148Z,100.00
2022-12-26T06:52:24.377Z,100.00
2022-12-26T06:54:51.247Z,100.00
2022-12-26T06:57:18.290Z,100.00
2022-12-26T06:59:45.045Z,100.00
2022-12-26T07:02:11.924Z,100.00
2022-12-26T07:04:38.923Z,100.00
2022-12-26T07:07:09.271Z,100.00
2022-12-26T07:09:38.195Z,100.00
2022-12-26T07:12:06.118Z,100.00
2022-12-26T07:14:33.290Z,100.00
2022-12-26T07:17:00.397Z,100.00
2022-12-26T07:19:29.330Z,100.00
2022-12-26T07:21:56.751Z,100.00
2022-12-26T07:24:23.519Z,100.00
2022-12-26T07:26:51.634Z,100.00
2022-12-26T07:29:18.750Z,100.00
2022-12-26T07:31:46.035Z,100.00
2022-12-26T07:34:14.446Z,100.00
2022-12-26T07:36:42.080Z,100.00
2022-12-26T07:39:09.237Z,100.00
2022-12-26T07:41:36.514Z,100.00
2022-12-26T07:44:05.011Z,100.00
2022-12-26T07:46:32.048Z,100.00
2022-12-26T07:48:59.155Z,100.00
2022-12-26T07:51:26.640Z,100.00
2022-12-26T07:53:53.398Z,100.00
2022-12-26T07:56:20.380Z,100.00
2022-12-26T07:58:49.130Z,100.00
2022-12-26T08:01:17.751Z,100.00
2022-12-26T08:03:46.339Z,100.00
2022-12-26T08:06:17.394Z,100.00
2022-12-26T08:08:50.484Z,100.00
2022-12-26T08:11:23.647Z,100.00
2022-12-26T08:13:50.907Z,100.00
2022-12-26T08:16:23.997Z,100.00
2022-12-26T08:18:52.954Z,100.00
2022-12-26T08:21:19.919Z,100.00
2022-12-26T08:23:46.957Z,100.00
2022-12-26T08:26:17.600Z,100.00
2022-12-26T08:28:44.409Z,100.00
2022-12-26T08:31:18.157Z,100.00
2022-12-26T08:33:50.573Z,100.00
2022-12-26T08:36:18.852Z,100.00
2022-12-26T08:38:46.627Z,100.00
2022-12-26T08:41:13.750Z,100.00
2022-12-26T08:46:27.391Z,100.00
2022-12-26T08:48:55.684Z,100.00
2022-12-26T08:51:30.388Z,100.00
2022-12-26T08:53:57.248Z,100.00
2022-12-26T08:56:25.402Z,100.00
2022-12-26T08:58:52.750Z,100.00
2022-12-26T09:01:21.959Z,100.00
2022-12-26T09:03:53.994Z,100.00
2022-12-26T09:06:28.596Z,100.00
2022-12-26T09:09:01.500Z,100.00
2022-12-26T09:11:29.465Z,100.00
2022-12-26T09:14:01.067Z,100.00
2022-12-26T09:16:50.077Z,100.00
2022-12-26T09:19:21.648Z,100.00
2022-12-26T09:21:53.812Z,100.00
2022-12-26T09:24:45.099Z,100.00
2022-12-26T09:27:12.037Z,100.00
2022-12-26T09:29:38.825Z,100.00
2022-12-26T09:32:06.170Z,100.00
2022-12-26T09:34:33.125Z,100.00
2022-12-26T09:37:01.313Z,100.00
2022-12-26T09:39:28.012Z,100.00
2022-12-26T09:42:03.859Z,100.00
2022-12-26T09:44:42.309Z,100.00
2022-12-26T09:47:22.078Z,100.00
2022-12-26T09:49:55.504Z,100.00
2022-12-26T09:52:32.531Z,100.00
2022-12-26T09:55:05.703Z,100.00
2022-12-26T09:57:38.131Z,100.00
2022-12-26T10:00:07.446Z,100.00
2022-12-26T10:02:34.375Z,100.00
2022-12-26T10:05:01.682Z,100.00
2022-12-26T10:07:36.321Z,100.00
2022-12-26T10:10:10.895Z,100.00
2022-12-26T10:12:50.814Z,100.00
2022-12-26T10:15:43.446Z,100.00
2022-12-26T10:18:28.207Z,100.00
2022-12-26T10:21:12.177Z,100.00
2022-12-26T10:23:44.724Z,100.00
2022-12-26T10:26:16.878Z,100.00
2022-12-26T10:28:47.929Z,100.00
2022-12-26T10:57:24.841Z,100.00
2022-12-26T10:59:56.897Z,100.00
2022-12-26T11:05:40.351Z,100.00
2022-12-26T11:08:49.714Z,100.00
2022-12-26T11:11:25.100Z,100.00
2022-12-26T11:14:06.009Z,100.00
2022-12-26T11:16:46.198Z,100.00
2022-12-26T11:19:47.062Z,100.00
2022-12-26T11:22:41.714Z,100.00
2022-12-26T11:25:24.297Z,100.00
2022-12-26T11:27:59.990Z,100.00
2022-12-26T11:30:50.631Z,100.00
2022-12-26T11:33:48.134Z,100.00
2022-12-26T11:39:05.251Z,100.00
2022-12-26T11:41:41.201Z,100.00
2022-12-26T11:44:46.090Z,100.00
2022-12-26T11:47:27.099Z,100.00
2022-12-26T11:50:17.420Z,99.92
2022-12-26T11:53:28.762Z,97.53
2022-12-26T11:56:07.663Z,99.36
2022-12-26T11:58:53.854Z,99.32
2022-12-26T12:04:24.855Z,95.37
2022-12-26T12:11:04.178Z,93.25
2022-12-26T12:14:07.497Z,93.02
2022-12-26T12:17:07.766Z,90.09
2022-12-26T12:20:14.791Z,87.60
2022-12-26T12:23:32.770Z,89.77
2022-12-26T12:26:31.507Z,88.80
2022-12-26T13:45:56.846Z,82.86
2022-12-26T13:49:06.464Z,82.57
2022-12-26T13:52:28.564Z,82.54
2022-12-26T13:55:33.586Z,82.24
2022-12-26T13:58:36.427Z,82.99
2022-12-26T14:01:20.510Z,82.73
2022-12-26T14:04:08.965Z,83.20
2022-12-26T14:07:38.267Z,82.03
2022-12-26T14:10:25.437Z,83.29
2022-12-26T14:13:42.601Z,83.33
2022-12-26T14:16:35.002Z,82.57
2022-12-26T14:19:30.123Z,82.97
2022-12-26T14:22:25.423Z,83.24
2022-12-26T14:25:20.259Z,82.60
2022-12-26T14:28:02.562Z,83.05
2022-12-26T14:31:04.144Z,83.25
2022-12-26T14:33:50.745Z,82.43
2022-12-26T14:37:00.160Z,83.10
2022-12-26T14:39:41.108Z,83.52
2022-12-26T14:42:35.663Z,83.01
2022-12-26T14:45:15.447Z,83.10
2022-12-26T14:47:46.183Z,83.04
2022-12-26T14:50:52.677Z,83.21
2022-12-26T14:53:41.236Z,83.11
2022-12-26T14:56:34.763Z,82.91
2022-12-26T14:59:42.461Z,83.19
2022-12-26T15:02:40.276Z,83.25
2022-12-26T15:05:43.834Z,82.90
2022-12-26T15:08:35.138Z,83.17
2022-12-26T15:11:42.842Z,83.08
2022-12-26T15:14:56.999Z,83.25
2022-12-26T15:17:39.690Z,83.32
2022-12-26T15:20:53.372Z,83.27
2022-12-26T15:23:54.681Z,84.12
2022-12-26T15:27:18.473Z,84.48
2022-12-26T15:30:04.664Z,83.94
2022-12-26T15:32:43.553Z,85.06
2022-12-26T15:35:31.577Z,84.98
2022-12-26T15:38:25.114Z,84.61
2022-12-26T15:41:10.215Z,85.40
2022-12-26T15:44:03.227Z,85.13
2022-12-26T15:46:36.619Z,84.96
2022-12-26T15:49:30.420Z,85.65
2022-12-26T15:52:10.602Z,85.36
2022-12-26T15:55:15.698Z,85.90
2022-12-26T15:58:05.014Z,85.42
2022-12-26T16:00:49.631Z,85.92
2022-12-26T16:03:36.742Z,85.54
2022-12-26T16:06:33.232Z,85.89
2022-12-26T16:09:20.327Z,86.01
2022-12-26T16:12:00.755Z,85.81
2022-12-26T16:14:47.851Z,86.25
2022-12-26T16:17:32.830Z,85.68
2022-12-26T16:20:18.967Z,86.07
2022-12-26T16:23:00.560Z,86.27
2022-12-26T16:25:27.880Z,86.42
2022-12-26T16:27:57.797Z,86.16
2022-12-26T16:30:40.318Z,86.39
2022-12-26T16:33:28.407Z,86.34
2022-12-26T16:36:18.699Z,86.53
2022-12-26T16:38:52.717Z,86.43
2022-12-26T16:41:22.236Z,86.45
2022-12-26T16:43:55.953Z,86.81
2022-12-26T16:46:33.746Z,86.61
2022-12-26T16:49:09.678Z,87.30
2022-12-26T16:52:03.106Z,87.20
2022-12-26T16:54:37.448Z,87.05
2022-12-26T16:57:16.950Z,87.20
2022-12-26T16:59:56.659Z,87.65
2022-12-26T17:02:34.660Z,87.55
2022-12-26T17:05:06.535Z,88.02
2022-12-26T17:07:38.812Z,88.15
2022-12-26T17:10:21.120Z,88.62
2022-12-26T17:12:50.753Z,88.80
2022-12-26T17:15:24.627Z,88.75
2022-12-26T17:17:53.027Z,88.40
2022-12-26T17:20:47.385Z,89.18
2022-12-26T17:23:36.998Z,89.39
2022-12-26T17:26:30.052Z,89.01
2022-12-26T17:29:06.185Z,88.99
2022-12-26T17:31:40.365Z,89.43
2022-12-26T17:34:23.450Z,89.36
2022-12-26T17:37:18.616Z,90.37
2022-12-26T17:39:42.255Z,90.59
2022-12-26T17:42:17.510Z,91.22
2022-12-26T17:44:48.539Z,90.49
2022-12-26T17:47:28.125Z,90.58
2022-12-26T17:50:10.461Z,90.85
2022-12-26T17:55:22.705Z,90.87
2022-12-26T17:57:49.989Z,91.61
2022-12-26T18:00:19.995Z,91.05
2022-12-26T18:02:54.494Z,91.65
2022-12-26T18:05:27.177Z,91.35
2022-12-26T18:07:56.500Z,91.95
2022-12-26T18:10:31.276Z,92.31
2022-12-26T18:13:01.664Z,91.91
2022-12-26T18:15:31.582Z,91.49
2022-12-26T18:17:58.679Z,92.08
2022-12-26T18:20:33.179Z,91.74
2022-12-26T18:23:19.521Z,92.15
2022-12-26T18:25:54.319Z,92.51
2022-12-26T18:28:31.426Z,92.65
2022-12-26T18:31:00.490Z,92.24
2022-12-26T18:33:28.131Z,91.93
2022-12-26T18:36:07.404Z,92.72
2022-12-26T18:38:36.006Z,92.34
2022-12-26T18:41:05.742Z,92.42
2022-12-26T18:43:35.379Z,92.22
2022-12-26T18:46:06.599Z,92.14
2022-12-26T18:48:33.423Z,92.27
2022-12-26T18:51:18.270Z,92.18
2022-12-26T18:53:45.743Z,92.41
2022-12-26T18:56:14.501Z,92.18
2022-12-26T18:58:46.264Z,92.83
2022-12-26T19:01:18.628Z,92.97
2022-12-26T19:03:54.104Z,92.82
2022-12-26T19:06:33.348Z,93.38
2022-12-26T19:09:07.442Z,93.40
2022-12-26T19:11:37.564Z,92.62
2022-12-26T19:14:15.305Z,92.58
2022-12-26T19:16:42.646Z,93.14
2022-12-26T19:19:09.563Z,92.71
2022-12-26T19:21:47.765Z,93.61
2022-12-26T19:24:17.095Z,93.29
2022-12-26T19:26:54.538Z,93.23
2022-12-26T19:29:21.441Z,93.29
2022-12-26T19:31:51.229Z,93.77
2022-12-26T19:34:23.891Z,93.17
2022-12-26T19:36:57.471Z,93.22
2022-12-26T19:39:31.811Z,93.23
2022-12-26T19:42:03.988Z,93.35
2022-12-26T19:44:35.276Z,93.12
2022-12-26T19:47:11.381Z,93.36
2022-12-26T19:49:40.024Z,93.62
2022-12-26T19:52:08.337Z,93.47
2022-12-26T19:54:37.922Z,93.27
2022-12-26T19:57:05.551Z,93.29
2022-12-26T19:59:36.062Z,93.28
2022-12-26T20:02:08.016Z,93.21
2022-12-26T20:04:37.922Z,93.56
2022-12-26T20:07:10.350Z,93.26
2022-12-26T20:09:40.511Z,92.82
2022-12-26T20:12:11.097Z,93.31
2022-12-26T20:14:45.878Z,93.23
2022-12-26T20:17:16.271Z,93.04
2022-12-26T20:19:43.029Z,92.81
2022-12-26T20:22:10.338Z,93.08
2022-12-26T20:24:44.651Z,92.53
2022-12-26T20:27:18.506Z,92.59
2022-12-26T20:29:45.457Z,93.04
2022-12-26T20:32:13.841Z,92.87
2022-12-26T20:37:29.445Z,92.74
2022-12-26T20:40:07.653Z,92.78
2022-12-26T20:42:37.247Z,93.14
2022-12-26T20:45:08.499Z,92.70
2022-12-26T20:47:53.062Z,92.64
2022-12-26T20:50:30.501Z,92.67
2022-12-26T20:53:08.698Z,93.27
2022-12-26T20:55:39.374Z,92.91
2022-12-26T20:58:06.214Z,93.01
2022-12-26T21:00:44.513Z,92.85
2022-12-26T21:03:27.618Z,92.75
2022-12-26T21:06:07.888Z,92.86
2022-12-26T21:08:50.409Z,92.78
2022-12-26T21:11:34.688Z,93.07
2022-12-26T21:14:17.399Z,93.24
2022-12-26T21:16:46.500Z,93.56
2022-12-26T21:19:18.756Z,92.99
2022-12-26T21:21:54.237Z,93.50
2022-12-26T21:24:33.546Z,94.08
2022-12-26T21:27:13.473Z,94.16
2022-12-26T21:29:50.980Z,93.50
2022-12-26T21:32:17.974Z,93.86
2022-12-26T21:34:51.509Z,93.20
2022-12-26T21:37:19.102Z,92.75
2022-12-26T21:39:53.786Z,93.64
2022-12-26T21:45:13.070Z,93.19
2022-12-26T21:47:44.985Z,93.51
2022-12-26T21:50:19.144Z,93.32
2022-12-26T21:52:50.479Z,93.77
2022-12-26T21:55:20.199Z,93.07
2022-12-26T21:57:54.601Z,93.18
2022-12-26T22:00:31.604Z,92.95
2022-12-26T22:03:06.940Z,93.06
2022-12-26T22:05:42.913Z,92.67
2022-12-26T22:08:21.159Z,93.29
2022-12-26T22:10:52.370Z,93.09
2022-12-26T22:13:27.631Z,93.74
2022-12-26T22:15:59.947Z,93.29
2022-12-26T22:18:46.414Z,93.49
2022-12-26T22:21:15.685Z,93.48
2022-12-26T22:23:43.474Z,93.61
2022-12-26T22:26:15.927Z,93.44
2022-12-26T22:28:50.205Z,93.54
2022-12-26T22:31:24.909Z,93.84
2022-12-26T22:34:02.692Z,94.16
2022-12-26T22:36:47.493Z,93.69
2022-12-26T22:39:37.978Z,94.37
2022-12-26T22:42:22.607Z,94.32
2022-12-26T22:45:03.766Z,94.48
2022-12-26T22:47:35.800Z,93.88
2022-12-26T22:50:13.428Z,93.72
2022-12-26T22:52:42.989Z,93.79
2022-12-26T22:55:19.722Z,92.69
2022-12-26T22:57:52.385Z,91.93
2022-12-26T23:00:21.955Z,92.42
2022-12-26T23:02:48.789Z,91.79
2022-12-26T23:05:18.768Z,92.27
2022-12-26T23:07:51.660Z,91.72
2022-12-26T23:10:21.928Z,91.80
2022-12-26T23:12:52.926Z,91.95
2022-12-26T23:15:27.260Z,91.99
2022-12-26T23:18:09.974Z,92.04
2022-12-26T23:20:38.951Z,92.01
2022-12-26T23:23:08.158Z,92.21
2022-12-26T23:25:37.132Z,92.55
2022-12-26T23:28:04.298Z,92.82
2022-12-26T23:30:32.521Z,92.77
2022-12-26T23:33:04.884Z,92.56
2022-12-26T23:35:33.641Z,93.11
2022-12-26T23:38:00.463Z,93.07
2022-12-26T23:40:30.437Z,93.34
2022-12-26T23:43:01.747Z,93.71
2022-12-26T23:45:28.560Z,93.48
2022-12-26T23:48:04.924Z,94.10
2022-12-26T23:50:37.397Z,93.47
2022-12-26T23:53:06.472Z,93.55
2022-12-26T23:55:34.563Z,94.03
2022-12-26T23:58:03.188Z,93.63
